Disclaimer

Please do not use the information listed here in-flight or in-navigation, as they are not provided to us by the airports but are provided by volunteers, so they might be outdated.

Search


Regions


Airport information page

Radio informations:
Tower (TWR) - 129.7 MHz

Airport informations:
Latitude: 09° 20' 01.37" N
Longitude: 123° 18' 01.70" E
Elevation: 15 feet - 5 meters
Operating hours: Remarks
Operating agency: Civil government, landing fees and diplomatic clearance may be required
Timezone: UTC+8
Fuel: N/A

Runway information:
09/27 - 6136 x 118 feet< - >1870 x 36 meters

Recent METARs:
RPVD 190300Z 34008KT 320V020 9999 FEW015 OVC220 29/25 Q1011 RMK A2985
RPVD 190400Z 34008KT 320V020 9999 FEW015 OVC220 29/25 Q1010 RMK A2983
RPVD 190400Z 34008KT 320V020 9999 FEW015 OVC220 29/25 Q1010 RMK A2983

Airport on the map: